sensor_id;sensor_type;location;lat;lon;timestamp;P1;durP1;ratioP1;P2;durP2;ratioP2
2638;SDS011;1329;51.384;7.122;2022-12-20T00:00:48;2.77;;;2.57;;
2638;SDS011;1329;51.384;7.122;2022-12-20T00:03:16;3.70;;;2.70;;
2638;SDS011;1329;51.384;7.122;2022-12-20T00:05:44;3.00;;;2.67;;
2638;SDS011;1329;51.384;7.122;2022-12-20T00:08:11;2.77;;;2.57;;
2638;SDS011;1329;51.384;7.122;2022-12-20T00:10:39;3.03;;;2.67;;
2638;SDS011;1329;51.384;7.122;2022-12-20T00:13:08;2.70;;;2.50;;
2638;SDS011;1329;51.384;7.122;2022-12-20T00:15:37;3.10;;;2.57;;
2638;SDS011;1329;51.384;7.122;2022-12-20T00:18:10;2.53;;;2.33;;
2638;SDS011;1329;51.384;7.122;2022-12-20T00:20:37;3.20;;;2.67;;
2638;SDS011;1329;51.384;7.122;2022-12-20T00:23:04;2.90;;;2.50;;
2638;SDS011;1329;51.384;7.122;2022-12-20T00:25:32;2.93;;;2.33;;
2638;SDS011;1329;51.384;7.122;2022-12-20T00:27:59;3.73;;;2.90;;
2638;SDS011;1329;51.384;7.122;2022-12-20T00:30:28;2.90;;;2.60;;
2638;SDS011;1329;51.384;7.122;2022-12-20T00:32:56;2.87;;;2.53;;
2638;SDS011;1329;51.384;7.122;2022-12-20T00:35:23;2.73;;;2.53;;
2638;SDS011;1329;51.384;7.122;2022-12-20T00:37:50;2.63;;;2.30;;
2638;SDS011;1329;51.384;7.122;2022-12-20T00:40:18;2.50;;;2.30;;
2638;SDS011;1329;51.384;7.122;2022-12-20T00:42:45;2.80;;;2.50;;
2638;SDS011;1329;51.384;7.122;2022-12-20T00:45:12;2.80;;;2.17;;
2638;SDS011;1329;51.384;7.122;2022-12-20T00:47:40;2.70;;;2.50;;
2638;SDS011;1329;51.384;7.122;2022-12-20T00:50:08;2.57;;;2.20;;
2638;SDS011;1329;51.384;7.122;2022-12-20T00:52:36;2.43;;;2.23;;
2638;SDS011;1329;51.384;7.122;2022-12-20T00:55:03;2.70;;;2.50;;
2638;SDS011;1329;51.384;7.122;2022-12-20T00:57:31;2.60;;;2.40;;
2638;SDS011;1329;51.384;7.122;2022-12-20T00:59:58;2.83;;;2.57;;
2638;SDS011;1329;51.384;7.122;2022-12-20T01:02:25;2.53;;;2.30;;
2638;SDS011;1329;51.384;7.122;2022-12-20T01:04:52;2.70;;;2.50;;
2638;SDS011;1329;51.384;7.122;2022-12-20T01:07:20;3.57;;;2.60;;
2638;SDS011;1329;51.384;7.122;2022-12-20T01:09:48;3.17;;;2.70;;
2638;SDS011;1329;51.384;7.122;2022-12-20T01:12:16;3.60;;;2.43;;
2638;SDS011;1329;51.384;7.122;2022-12-20T01:14:43;2.80;;;2.33;;
2638;SDS011;1329;51.384;7.122;2022-12-20T01:17:10;2.97;;;2.67;;
2638;SDS011;1329;51.384;7.122;2022-12-20T01:19:37;3.17;;;2.60;;
2638;SDS011;1329;51.384;7.122;2022-12-20T01:22:05;3.80;;;2.70;;
2638;SDS011;1329;51.384;7.122;2022-12-20T01:24:36;2.47;;;2.27;;
2638;SDS011;1329;51.384;7.122;2022-12-20T01:27:03;4.03;;;3.00;;
2638;SDS011;1329;51.384;7.122;2022-12-20T01:29:30;3.07;;;2.50;;
2638;SDS011;1329;51.384;7.122;2022-12-20T01:31:57;3.47;;;2.93;;
2638;SDS011;1329;51.384;7.122;2022-12-20T01:34:24;3.00;;;2.70;;
2638;SDS011;1329;51.384;7.122;2022-12-20T01:36:51;2.80;;;2.60;;
2638;SDS011;1329;51.384;7.122;2022-12-20T01:39:18;3.47;;;2.73;;
2638;SDS011;1329;51.384;7.122;2022-12-20T01:41:47;2.90;;;2.37;;
2638;SDS011;1329;51.384;7.122;2022-12-20T01:47:23;2.50;;;2.20;;
2638;SDS011;1329;51.384;7.122;2022-12-20T01:49:55;3.80;;;2.70;;
2638;SDS011;1329;51.384;7.122;2022-12-20T01:52:31;2.77;;;2.47;;
2638;SDS011;1329;51.384;7.122;2022-12-20T01:55:03;4.23;;;3.00;;
2638;SDS011;1329;51.384;7.122;2022-12-20T01:57:37;4.13;;;2.60;;
2638;SDS011;1329;51.384;7.122;2022-12-20T02:00:10;2.63;;;2.43;;
2638;SDS011;1329;51.384;7.122;2022-12-20T02:02:40;2.90;;;2.70;;
2638;SDS011;1329;51.384;7.122;2022-12-20T02:05:08;3.10;;;2.60;;
2638;SDS011;1329;51.384;7.122;2022-12-20T02:07:35;3.00;;;2.70;;
2638;SDS011;1329;51.384;7.122;2022-12-20T02:10:05;4.00;;;2.70;;
2638;SDS011;1329;51.384;7.122;2022-12-20T02:12:37;3.40;;;2.57;;
2638;SDS011;1329;51.384;7.122;2022-12-20T02:15:14;3.10;;;2.80;;
2638;SDS011;1329;51.384;7.122;2022-12-20T02:18:02;3.10;;;2.80;;
2638;SDS011;1329;51.384;7.122;2022-12-20T02:20:51;4.33;;;3.10;;
2638;SDS011;1329;51.384;7.122;2022-12-20T02:23:49;3.27;;;2.97;;
2638;SDS011;1329;51.384;7.122;2022-12-20T02:30:03;3.80;;;3.30;;
2638;SDS011;1329;51.384;7.122;2022-12-20T02:32:35;3.13;;;2.90;;
2638;SDS011;1329;51.384;7.122;2022-12-20T02:35:08;3.27;;;3.00;;
2638;SDS011;1329;51.384;7.122;2022-12-20T02:37:45;3.33;;;3.03;;
2638;SDS011;1329;51.384;7.122;2022-12-20T02:40:14;4.33;;;3.50;;
2638;SDS011;1329;51.384;7.122;2022-12-20T02:42:47;3.13;;;2.83;;
2638;SDS011;1329;51.384;7.122;2022-12-20T02:45:19;3.50;;;3.20;;
2638;SDS011;1329;51.384;7.122;2022-12-20T02:47:49;4.03;;;2.83;;
2638;SDS011;1329;51.384;7.122;2022-12-20T02:50:22;3.33;;;3.00;;
2638;SDS011;1329;51.384;7.122;2022-12-20T02:52:57;4.03;;;3.33;;
2638;SDS011;1329;51.384;7.122;2022-12-20T02:55:28;4.47;;;3.27;;
2638;SDS011;1329;51.384;7.122;2022-12-20T02:58:05;3.47;;;3.17;;
2638;SDS011;1329;51.384;7.122;2022-12-20T03:00:41;3.33;;;3.03;;
2638;SDS011;1329;51.384;7.122;2022-12-20T03:03:12;3.47;;;3.17;;
2638;SDS011;1329;51.384;7.122;2022-12-20T03:05:50;3.83;;;3.10;;
2638;SDS011;1329;51.384;7.122;2022-12-20T03:08:19;3.10;;;2.80;;
2638;SDS011;1329;51.384;7.122;2022-12-20T03:10:48;3.33;;;3.00;;
2638;SDS011;1329;51.384;7.122;2022-12-20T03:13:16;3.27;;;2.97;;
2638;SDS011;1329;51.384;7.122;2022-12-20T03:15:45;3.30;;;3.03;;
2638;SDS011;1329;51.384;7.122;2022-12-20T03:18:12;4.20;;;3.20;;
2638;SDS011;1329;51.384;7.122;2022-12-20T03:20:39;3.37;;;3.07;;
2638;SDS011;1329;51.384;7.122;2022-12-20T03:23:06;3.40;;;3.20;;
2638;SDS011;1329;51.384;7.122;2022-12-20T03:25:34;3.53;;;3.10;;
2638;SDS011;1329;51.384;7.122;2022-12-20T03:28:01;3.53;;;3.00;;
2638;SDS011;1329;51.384;7.122;2022-12-20T03:30:28;3.53;;;3.00;;
2638;SDS011;1329;51.384;7.122;2022-12-20T03:32:57;3.60;;;3.30;;
2638;SDS011;1329;51.384;7.122;2022-12-20T03:35:24;6.40;;;3.40;;
2638;SDS011;1329;51.384;7.122;2022-12-20T03:37:51;4.13;;;3.03;;
2638;SDS011;1329;51.384;7.122;2022-12-20T03:40:19;3.50;;;3.20;;
2638;SDS011;1329;51.384;7.122;2022-12-20T03:42:46;5.23;;;3.30;;
2638;SDS011;1329;51.384;7.122;2022-12-20T03:45:13;4.37;;;3.43;;
2638;SDS011;1329;51.384;7.122;2022-12-20T03:47:40;3.27;;;2.97;;
2638;SDS011;1329;51.384;7.122;2022-12-20T03:50:09;3.67;;;3.33;;
2638;SDS011;1329;51.384;7.122;2022-12-20T03:52:37;4.10;;;3.70;;
2638;SDS011;1329;51.384;7.122;2022-12-20T03:55:05;3.70;;;3.40;;
2638;SDS011;1329;51.384;7.122;2022-12-20T03:57:36;3.50;;;3.20;;
2638;SDS011;1329;51.384;7.122;2022-12-20T04:00:04;3.70;;;3.40;;
2638;SDS011;1329;51.384;7.122;2022-12-20T04:02:32;4.00;;;3.60;;
2638;SDS011;1329;51.384;7.122;2022-12-20T04:04:59;4.00;;;3.60;;
2638;SDS011;1329;51.384;7.122;2022-12-20T04:07:28;3.70;;;3.30;;
2638;SDS011;1329;51.384;7.122;2022-12-20T04:09:55;3.67;;;3.33;;
2638;SDS011;1329;51.384;7.122;2022-12-20T04:12:22;4.53;;;3.50;;
2638;SDS011;1329;51.384;7.122;2022-12-20T04:14:49;3.50;;;3.20;;
2638;SDS011;1329;51.384;7.122;2022-12-20T04:17:16;4.57;;;3.97;;
2638;SDS011;1329;51.384;7.122;2022-12-20T04:19:43;3.83;;;3.40;;
2638;SDS011;1329;51.384;7.122;2022-12-20T04:22:10;4.93;;;3.60;;
2638;SDS011;1329;51.384;7.122;2022-12-20T04:24:39;4.87;;;3.87;;
2638;SDS011;1329;51.384;7.122;2022-12-20T04:27:06;3.77;;;3.47;;
2638;SDS011;1329;51.384;7.122;2022-12-20T04:29:33;3.67;;;3.37;;
2638;SDS011;1329;51.384;7.122;2022-12-20T04:32:00;3.80;;;3.50;;
2638;SDS011;1329;51.384;7.122;2022-12-20T04:34:27;3.67;;;3.37;;
2638;SDS011;1329;51.384;7.122;2022-12-20T04:36:54;4.30;;;3.90;;
2638;SDS011;1329;51.384;7.122;2022-12-20T04:39:22;4.20;;;3.80;;
2638;SDS011;1329;51.384;7.122;2022-12-20T04:41:52;4.63;;;3.37;;
2638;SDS011;1329;51.384;7.122;2022-12-20T04:44:19;4.27;;;3.77;;
2638;SDS011;1329;51.384;7.122;2022-12-20T04:46:46;3.87;;;3.57;;
2638;SDS011;1329;51.384;7.122;2022-12-20T04:49:13;4.00;;;3.67;;
2638;SDS011;1329;51.384;7.122;2022-12-20T04:51:40;4.13;;;3.73;;
2638;SDS011;1329;51.384;7.122;2022-12-20T04:54:07;3.97;;;3.57;;
2638;SDS011;1329;51.384;7.122;2022-12-20T04:56:33;4.87;;;3.77;;
2638;SDS011;1329;51.384;7.122;2022-12-20T04:59:02;4.43;;;4.03;;
2638;SDS011;1329;51.384;7.122;2022-12-20T05:01:30;4.53;;;4.13;;
2638;SDS011;1329;51.384;7.122;2022-12-20T05:03:58;4.40;;;4.00;;
2638;SDS011;1329;51.384;7.122;2022-12-20T05:06:28;4.03;;;3.63;;
2638;SDS011;1329;51.384;7.122;2022-12-20T05:09:00;4.17;;;3.77;;
2638;SDS011;1329;51.384;7.122;2022-12-20T05:11:27;4.43;;;3.90;;
2638;SDS011;1329;51.384;7.122;2022-12-20T05:13:59;4.50;;;3.67;;
2638;SDS011;1329;51.384;7.122;2022-12-20T05:16:28;4.07;;;3.60;;
2638;SDS011;1329;51.384;7.122;2022-12-20T05:18:55;4.30;;;3.90;;
2638;SDS011;1329;51.384;7.122;2022-12-20T05:21:22;4.10;;;3.70;;
2638;SDS011;1329;51.384;7.122;2022-12-20T05:24:08;4.10;;;3.70;;
2638;SDS011;1329;51.384;7.122;2022-12-20T05:26:53;4.00;;;3.60;;
2638;SDS011;1329;51.384;7.122;2022-12-20T05:29:20;4.87;;;4.03;;
2638;SDS011;1329;51.384;7.122;2022-12-20T05:31:48;4.30;;;3.90;;
2638;SDS011;1329;51.384;7.122;2022-12-20T05:34:15;4.43;;;4.03;;
2638;SDS011;1329;51.384;7.122;2022-12-20T05:36:43;5.03;;;4.20;;
2638;SDS011;1329;51.384;7.122;2022-12-20T05:39:10;4.57;;;4.17;;
2638;SDS011;1329;51.384;7.122;2022-12-20T05:41:37;4.80;;;4.07;;
2638;SDS011;1329;51.384;7.122;2022-12-20T05:44:05;4.17;;;3.77;;
2638;SDS011;1329;51.384;7.122;2022-12-20T05:46:32;4.40;;;4.00;;
2638;SDS011;1329;51.384;7.122;2022-12-20T05:49:01;4.83;;;4.17;;
2638;SDS011;1329;51.384;7.122;2022-12-20T05:51:28;5.10;;;4.53;;
2638;SDS011;1329;51.384;7.122;2022-12-20T05:53:56;4.03;;;3.73;;
2638;SDS011;1329;51.384;7.122;2022-12-20T05:56:23;4.93;;;4.13;;
2638;SDS011;1329;51.384;7.122;2022-12-20T05:58:51;4.87;;;4.47;;
2638;SDS011;1329;51.384;7.122;2022-12-20T06:01:18;4.07;;;3.67;;
2638;SDS011;1329;51.384;7.122;2022-12-20T06:03:46;5.07;;;4.60;;
2638;SDS011;1329;51.384;7.122;2022-12-20T06:06:16;4.83;;;4.33;;
2638;SDS011;1329;51.384;7.122;2022-12-20T06:08:46;4.83;;;4.40;;
2638;SDS011;1329;51.384;7.122;2022-12-20T06:11:14;4.73;;;4.33;;
2638;SDS011;1329;51.384;7.122;2022-12-20T06:13:43;4.47;;;4.07;;
2638;SDS011;1329;51.384;7.122;2022-12-20T06:16:10;5.93;;;4.63;;
2638;SDS011;1329;51.384;7.122;2022-12-20T06:18:37;5.00;;;3.80;;
2638;SDS011;1329;51.384;7.122;2022-12-20T06:21:04;4.37;;;3.97;;
2638;SDS011;1329;51.384;7.122;2022-12-20T06:23:33;4.47;;;4.00;;
2638;SDS011;1329;51.384;7.122;2022-12-20T06:26:04;4.90;;;4.10;;
2638;SDS011;1329;51.384;7.122;2022-12-20T06:28:33;4.67;;;4.20;;
2638;SDS011;1329;51.384;7.122;2022-12-20T06:31:08;4.10;;;3.70;;
2638;SDS011;1329;51.384;7.122;2022-12-20T06:33:36;5.00;;;4.60;;
2638;SDS011;1329;51.384;7.122;2022-12-20T06:36:04;4.10;;;3.80;;
2638;SDS011;1329;51.384;7.122;2022-12-20T06:38:33;4.27;;;3.70;;
2638;SDS011;1329;51.384;7.122;2022-12-20T06:41:00;4.30;;;3.90;;
2638;SDS011;1329;51.384;7.122;2022-12-20T06:43:27;4.13;;;3.73;;
2638;SDS011;1329;51.384;7.122;2022-12-20T06:45:55;4.37;;;3.97;;
2638;SDS011;1329;51.384;7.122;2022-12-20T06:48:22;4.87;;;3.70;;
2638;SDS011;1329;51.384;7.122;2022-12-20T06:50:49;3.93;;;3.50;;
2638;SDS011;1329;51.384;7.122;2022-12-20T06:53:16;3.97;;;3.57;;
2638;SDS011;1329;51.384;7.122;2022-12-20T06:55:47;3.97;;;3.57;;
2638;SDS011;1329;51.384;7.122;2022-12-20T06:58:15;3.80;;;3.43;;
2638;SDS011;1329;51.384;7.122;2022-12-20T07:00:42;3.67;;;3.37;;
2638;SDS011;1329;51.384;7.122;2022-12-20T07:03:09;3.97;;;3.50;;
2638;SDS011;1329;51.384;7.122;2022-12-20T07:05:37;3.67;;;3.37;;
2638;SDS011;1329;51.384;7.122;2022-12-20T07:08:04;3.50;;;3.13;;
2638;SDS011;1329;51.384;7.122;2022-12-20T07:10:32;5.23;;;3.30;;
2638;SDS011;1329;51.384;7.122;2022-12-20T07:13:02;3.47;;;3.17;;
2638;SDS011;1329;51.384;7.122;2022-12-20T07:15:29;4.30;;;3.57;;
2638;SDS011;1329;51.384;7.122;2022-12-20T07:17:56;4.47;;;4.07;;
2638;SDS011;1329;51.384;7.122;2022-12-20T07:20:24;3.63;;;3.33;;
2638;SDS011;1329;51.384;7.122;2022-12-20T07:22:51;5.23;;;3.37;;
2638;SDS011;1329;51.384;7.122;2022-12-20T07:25:18;3.90;;;3.53;;
2638;SDS011;1329;51.384;7.122;2022-12-20T07:27:46;4.07;;;3.57;;
2638;SDS011;1329;51.384;7.122;2022-12-20T07:30:16;3.97;;;3.57;;
2638;SDS011;1329;51.384;7.122;2022-12-20T07:32:45;3.90;;;3.50;;
2638;SDS011;1329;51.384;7.122;2022-12-20T07:35:13;4.60;;;3.37;;
2638;SDS011;1329;51.384;7.122;2022-12-20T07:37:42;4.83;;;3.83;;
2638;SDS011;1329;51.384;7.122;2022-12-20T07:40:10;3.60;;;3.30;;
2638;SDS011;1329;51.384;7.122;2022-12-20T07:42:38;4.97;;;3.60;;
2638;SDS011;1329;51.384;7.122;2022-12-20T07:45:06;3.97;;;3.20;;
2638;SDS011;1329;51.384;7.122;2022-12-20T07:47:35;4.33;;;3.50;;
2638;SDS011;1329;51.384;7.122;2022-12-20T07:50:06;5.07;;;3.37;;
2638;SDS011;1329;51.384;7.122;2022-12-20T07:52:36;3.50;;;3.20;;
2638;SDS011;1329;51.384;7.122;2022-12-20T07:55:05;3.63;;;2.97;;
2638;SDS011;1329;51.384;7.122;2022-12-20T07:57:38;3.37;;;3.07;;
2638;SDS011;1329;51.384;7.122;2022-12-20T08:00:09;3.30;;;3.00;;
2638;SDS011;1329;51.384;7.122;2022-12-20T08:02:39;3.27;;;2.97;;
2638;SDS011;1329;51.384;7.122;2022-12-20T08:05:11;3.60;;;3.30;;
2638;SDS011;1329;51.384;7.122;2022-12-20T08:07:42;5.27;;;3.20;;
2638;SDS011;1329;51.384;7.122;2022-12-20T08:10:11;3.20;;;2.93;;
2638;SDS011;1329;51.384;7.122;2022-12-20T08:12:43;3.23;;;3.00;;
2638;SDS011;1329;51.384;7.122;2022-12-20T08:15:11;4.10;;;3.20;;
2638;SDS011;1329;51.384;7.122;2022-12-20T08:17:40;3.23;;;2.93;;
2638;SDS011;1329;51.384;7.122;2022-12-20T08:20:08;3.80;;;3.07;;
2638;SDS011;1329;51.384;7.122;2022-12-20T08:22:36;3.20;;;2.90;;
2638;SDS011;1329;51.384;7.122;2022-12-20T08:25:04;3.30;;;3.00;;
2638;SDS011;1329;51.384;7.122;2022-12-20T08:27:33;3.10;;;2.80;;
2638;SDS011;1329;51.384;7.122;2022-12-20T08:30:01;3.70;;;2.80;;
2638;SDS011;1329;51.384;7.122;2022-12-20T08:32:29;4.90;;;2.70;;
2638;SDS011;1329;51.384;7.122;2022-12-20T08:34:58;3.93;;;2.90;;
2638;SDS011;1329;51.384;7.122;2022-12-20T08:37:25;3.00;;;2.70;;
2638;SDS011;1329;51.384;7.122;2022-12-20T08:39:55;3.13;;;2.83;;
2638;SDS011;1329;51.384;7.122;2022-12-20T08:42:22;3.50;;;2.60;;
2638;SDS011;1329;51.384;7.122;2022-12-20T08:44:53;3.97;;;2.90;;
2638;SDS011;1329;51.384;7.122;2022-12-20T08:47:21;3.30;;;3.00;;
2638;SDS011;1329;51.384;7.122;2022-12-20T08:49:48;3.70;;;3.00;;
2638;SDS011;1329;51.384;7.122;2022-12-20T08:52:17;3.20;;;2.60;;
2638;SDS011;1329;51.384;7.122;2022-12-20T08:54:48;4.47;;;2.83;;
2638;SDS011;1329;51.384;7.122;2022-12-20T08:57:16;3.17;;;2.70;;
2638;SDS011;1329;51.384;7.122;2022-12-20T08:59:43;2.67;;;2.47;;
2638;SDS011;1329;51.384;7.122;2022-12-20T09:02:10;4.17;;;2.93;;
2638;SDS011;1329;51.384;7.122;2022-12-20T09:04:38;3.70;;;3.13;;
2638;SDS011;1329;51.384;7.122;2022-12-20T09:07:05;4.00;;;3.00;;
2638;SDS011;1329;51.384;7.122;2022-12-20T09:09:37;3.53;;;2.90;;
2638;SDS011;1329;51.384;7.122;2022-12-20T09:12:04;4.07;;;2.77;;
2638;SDS011;1329;51.384;7.122;2022-12-20T09:14:33;3.20;;;2.90;;
2638;SDS011;1329;51.384;7.122;2022-12-20T09:17:00;4.37;;;2.97;;
2638;SDS011;1329;51.384;7.122;2022-12-20T09:19:28;3.07;;;2.70;;
2638;SDS011;1329;51.384;7.122;2022-12-20T09:21:55;3.07;;;2.77;;
2638;SDS011;1329;51.384;7.122;2022-12-20T09:24:22;3.03;;;2.83;;
2638;SDS011;1329;51.384;7.122;2022-12-20T09:26:51;3.17;;;2.63;;
2638;SDS011;1329;51.384;7.122;2022-12-20T09:29:20;3.13;;;2.70;;
2638;SDS011;1329;51.384;7.122;2022-12-20T09:31:48;3.30;;;2.67;;
2638;SDS011;1329;51.384;7.122;2022-12-20T09:34:17;3.30;;;2.63;;
2638;SDS011;1329;51.384;7.122;2022-12-20T09:36:44;2.67;;;2.47;;
2638;SDS011;1329;51.384;7.122;2022-12-20T09:39:12;3.77;;;2.70;;
2638;SDS011;1329;51.384;7.122;2022-12-20T09:41:40;3.30;;;3.00;;
2638;SDS011;1329;51.384;7.122;2022-12-20T09:44:12;3.10;;;2.80;;
2638;SDS011;1329;51.384;7.122;2022-12-20T09:46:43;3.93;;;2.93;;
2638;SDS011;1329;51.384;7.122;2022-12-20T09:49:19;3.17;;;2.60;;
2638;SDS011;1329;51.384;7.122;2022-12-20T09:51:53;3.20;;;2.90;;
2638;SDS011;1329;51.384;7.122;2022-12-20T09:54:41;4.10;;;2.80;;
2638;SDS011;1329;51.384;7.122;2022-12-20T09:57:18;5.57;;;3.33;;
2638;SDS011;1329;51.384;7.122;2022-12-20T09:59:56;3.73;;;3.30;;
2638;SDS011;1329;51.384;7.122;2022-12-20T10:02:23;3.37;;;2.93;;
2638;SDS011;1329;51.384;7.122;2022-12-20T10:04:52;2.73;;;2.43;;
2638;SDS011;1329;51.384;7.122;2022-12-20T10:07:23;3.17;;;2.87;;
2638;SDS011;1329;51.384;7.122;2022-12-20T10:10:14;4.63;;;2.90;;
2638;SDS011;1329;51.384;7.122;2022-12-20T10:13:13;2.87;;;2.67;;
2638;SDS011;1329;51.384;7.122;2022-12-20T10:15:57;2.83;;;2.40;;
2638;SDS011;1329;51.384;7.122;2022-12-20T10:18:44;2.40;;;2.20;;
2638;SDS011;1329;51.384;7.122;2022-12-20T10:21:29;3.33;;;2.43;;
2638;SDS011;1329;51.384;7.122;2022-12-20T10:24:09;2.83;;;2.57;;
2638;SDS011;1329;51.384;7.122;2022-12-20T10:26:42;4.00;;;2.80;;
2638;SDS011;1329;51.384;7.122;2022-12-20T10:29:11;2.77;;;2.50;;
2638;SDS011;1329;51.384;7.122;2022-12-20T10:31:40;3.43;;;2.43;;
2638;SDS011;1329;51.384;7.122;2022-12-20T10:34:08;2.83;;;2.50;;
2638;SDS011;1329;51.384;7.122;2022-12-20T10:36:39;4.70;;;2.80;;
2638;SDS011;1329;51.384;7.122;2022-12-20T10:39:08;3.13;;;2.83;;
2638;SDS011;1329;51.384;7.122;2022-12-20T10:41:46;2.87;;;2.60;;
2638;SDS011;1329;51.384;7.122;2022-12-20T10:44:17;3.10;;;2.43;;
2638;SDS011;1329;51.384;7.122;2022-12-20T10:46:53;2.80;;;2.40;;
2638;SDS011;1329;51.384;7.122;2022-12-20T10:49:27;2.80;;;2.50;;
2638;SDS011;1329;51.384;7.122;2022-12-20T10:51:58;2.60;;;2.40;;
2638;SDS011;1329;51.384;7.122;2022-12-20T10:54:38;2.50;;;2.27;;
2638;SDS011;1329;51.384;7.122;2022-12-20T10:57:12;2.50;;;2.30;;
2638;SDS011;1329;51.384;7.122;2022-12-20T11:00:03;4.50;;;2.30;;
2638;SDS011;1329;51.384;7.122;2022-12-20T11:02:33;2.80;;;2.53;;
2638;SDS011;1329;51.384;7.122;2022-12-20T11:05:20;2.50;;;2.07;;
2638;SDS011;1329;51.384;7.122;2022-12-20T11:07:54;2.33;;;2.13;;
2638;SDS011;1329;51.384;7.122;2022-12-20T11:10:24;2.30;;;2.10;;
2638;SDS011;1329;51.384;7.122;2022-12-20T11:12:53;2.43;;;2.20;;
2638;SDS011;1329;51.384;7.122;2022-12-20T11:15:23;2.38;;;1.88;;
2638;SDS011;1329;51.384;7.122;2022-12-20T11:17:55;2.13;;;1.77;;
2638;SDS011;1329;51.384;7.122;2022-12-20T11:20:34;2.28;;;1.98;;
2638;SDS011;1329;51.384;7.122;2022-12-20T11:23:10;2.57;;;1.90;;
2638;SDS011;1329;51.384;7.122;2022-12-20T11:25:52;2.20;;;1.93;;
2638;SDS011;1329;51.384;7.122;2022-12-20T11:28:40;2.13;;;1.80;;
2638;SDS011;1329;51.384;7.122;2022-12-20T11:31:26;2.47;;;2.07;;
2638;SDS011;1329;51.384;7.122;2022-12-20T11:34:12;2.53;;;2.00;;
2638;SDS011;1329;51.384;7.122;2022-12-20T11:36:57;3.20;;;2.27;;
2638;SDS011;1329;51.384;7.122;2022-12-20T11:39:43;2.17;;;1.97;;
2638;SDS011;1329;51.384;7.122;2022-12-20T11:42:32;2.80;;;2.17;;
2638;SDS011;1329;51.384;7.122;2022-12-20T11:45:14;2.50;;;2.20;;
2638;SDS011;1329;51.384;7.122;2022-12-20T11:47:55;2.03;;;1.80;;
2638;SDS011;1329;51.384;7.122;2022-12-20T11:50:49;2.72;;;2.50;;
2638;SDS011;1329;51.384;7.122;2022-12-20T11:53:31;2.80;;;1.90;;
2638;SDS011;1329;51.384;7.122;2022-12-20T11:56:02;3.20;;;2.30;;
2638;SDS011;1329;51.384;7.122;2022-12-20T11:58:40;2.20;;;1.97;;
2638;SDS011;1329;51.384;7.122;2022-12-20T12:01:16;2.53;;;2.10;;
2638;SDS011;1329;51.384;7.122;2022-12-20T12:03:52;2.53;;;2.05;;
2638;SDS011;1329;51.384;7.122;2022-12-20T12:06:30;2.27;;;2.00;;
2638;SDS011;1329;51.384;7.122;2022-12-20T12:09:05;2.10;;;2.00;;
2638;SDS011;1329;51.384;7.122;2022-12-20T12:11:42;2.45;;;1.90;;
2638;SDS011;1329;51.384;7.122;2022-12-20T12:14:15;2.90;;;2.30;;
2638;SDS011;1329;51.384;7.122;2022-12-20T12:16:54;1.97;;;1.83;;
2638;SDS011;1329;51.384;7.122;2022-12-20T12:19:29;3.30;;;2.13;;
2638;SDS011;1329;51.384;7.122;2022-12-20T12:22:00;2.37;;;2.17;;
2638;SDS011;1329;51.384;7.122;2022-12-20T12:24:34;2.00;;;1.90;;
2638;SDS011;1329;51.384;7.122;2022-12-20T12:27:07;3.37;;;2.40;;
2638;SDS011;1329;51.384;7.122;2022-12-20T12:29:45;2.77;;;2.40;;
2638;SDS011;1329;51.384;7.122;2022-12-20T12:32:13;2.20;;;2.00;;
2638;SDS011;1329;51.384;7.122;2022-12-20T12:34:52;4.10;;;2.37;;
2638;SDS011;1329;51.384;7.122;2022-12-20T12:37:44;3.10;;;2.20;;
2638;SDS011;1329;51.384;7.122;2022-12-20T12:40:31;2.23;;;2.03;;
2638;SDS011;1329;51.384;7.122;2022-12-20T12:43:22;2.63;;;2.10;;
2638;SDS011;1329;51.384;7.122;2022-12-20T12:46:18;3.87;;;2.00;;
2638;SDS011;1329;51.384;7.122;2022-12-20T12:48:52;3.00;;;2.47;;
2638;SDS011;1329;51.384;7.122;2022-12-20T12:51:28;3.20;;;2.10;;
2638;SDS011;1329;51.384;7.122;2022-12-20T12:54:03;3.00;;;2.40;;
2638;SDS011;1329;51.384;7.122;2022-12-20T12:56:45;1.97;;;1.83;;
2638;SDS011;1329;51.384;7.122;2022-12-20T13:02:23;2.90;;;2.30;;
2638;SDS011;1329;51.384;7.122;2022-12-20T13:05:29;2.27;;;2.00;;
2638;SDS011;1329;51.384;7.122;2022-12-20T13:08:01;3.47;;;2.40;;
2638;SDS011;1329;51.384;7.122;2022-12-20T13:10:58;2.47;;;2.27;;
2638;SDS011;1329;51.384;7.122;2022-12-20T13:13:28;2.53;;;2.10;;
2638;SDS011;1329;51.384;7.122;2022-12-20T13:16:05;3.43;;;2.40;;
2638;SDS011;1329;51.384;7.122;2022-12-20T13:21:41;3.27;;;2.23;;
2638;SDS011;1329;51.384;7.122;2022-12-20T13:27:24;3.93;;;2.67;;
2638;SDS011;1329;51.384;7.122;2022-12-20T13:35:59;2.80;;;2.43;;
2638;SDS011;1329;51.384;7.122;2022-12-20T13:38:48;2.83;;;2.63;;
2638;SDS011;1329;51.384;7.122;2022-12-20T13:41:33;3.23;;;2.60;;
2638;SDS011;1329;51.384;7.122;2022-12-20T13:47:20;3.40;;;2.73;;
2638;SDS011;1329;51.384;7.122;2022-12-20T13:50:00;2.57;;;2.37;;
2638;SDS011;1329;51.384;7.122;2022-12-20T13:52:47;4.40;;;2.97;;
2638;SDS011;1329;51.384;7.122;2022-12-20T13:55:22;3.63;;;2.87;;
2638;SDS011;1329;51.384;7.122;2022-12-20T13:58:05;3.57;;;2.73;;
2638;SDS011;1329;51.384;7.122;2022-12-20T14:00:38;3.60;;;2.80;;
2638;SDS011;1329;51.384;7.122;2022-12-20T14:03:09;3.10;;;2.80;;
2638;SDS011;1329;51.384;7.122;2022-12-20T14:05:50;3.63;;;2.90;;
2638;SDS011;1329;51.384;7.122;2022-12-20T14:08:26;2.90;;;2.70;;
2638;SDS011;1329;51.384;7.122;2022-12-20T14:11:08;3.50;;;3.07;;
2638;SDS011;1329;51.384;7.122;2022-12-20T14:13:39;3.30;;;3.00;;
2638;SDS011;1329;51.384;7.122;2022-12-20T14:16:11;4.67;;;3.20;;
2638;SDS011;1329;51.384;7.122;2022-12-20T14:18:46;3.00;;;2.70;;
2638;SDS011;1329;51.384;7.122;2022-12-20T14:21:14;4.03;;;2.90;;
2638;SDS011;1329;51.384;7.122;2022-12-20T14:23:47;3.23;;;2.77;;
2638;SDS011;1329;51.384;7.122;2022-12-20T14:26:17;3.17;;;2.73;;
2638;SDS011;1329;51.384;7.122;2022-12-20T14:28:51;3.00;;;2.70;;
2638;SDS011;1329;51.384;7.122;2022-12-20T14:31:23;3.37;;;2.77;;
2638;SDS011;1329;51.384;7.122;2022-12-20T14:34:02;4.13;;;3.43;;
2638;SDS011;1329;51.384;7.122;2022-12-20T14:36:31;4.13;;;3.27;;
2638;SDS011;1329;51.384;7.122;2022-12-20T14:39:00;3.97;;;2.80;;
2638;SDS011;1329;51.384;7.122;2022-12-20T14:41:53;3.40;;;3.10;;
2638;SDS011;1329;51.384;7.122;2022-12-20T14:44:26;4.83;;;3.03;;
2638;SDS011;1329;51.384;7.122;2022-12-20T14:46:56;3.53;;;2.97;;
2638;SDS011;1329;51.384;7.122;2022-12-20T14:49:26;3.30;;;3.00;;
2638;SDS011;1329;51.384;7.122;2022-12-20T14:52:04;5.13;;;3.50;;
2638;SDS011;1329;51.384;7.122;2022-12-20T14:54:41;3.37;;;3.07;;
2638;SDS011;1329;51.384;7.122;2022-12-20T14:57:19;3.73;;;3.30;;
2638;SDS011;1329;51.384;7.122;2022-12-20T14:59:58;4.33;;;3.20;;
2638;SDS011;1329;51.384;7.122;2022-12-20T15:02:33;3.73;;;3.07;;
2638;SDS011;1329;51.384;7.122;2022-12-20T15:08:17;3.33;;;3.00;;
2638;SDS011;1329;51.384;7.122;2022-12-20T15:10:58;4.60;;;3.00;;
2638;SDS011;1329;51.384;7.122;2022-12-20T15:13:29;4.20;;;3.00;;
2638;SDS011;1329;51.384;7.122;2022-12-20T15:16:01;3.90;;;3.23;;
2638;SDS011;1329;51.384;7.122;2022-12-20T15:18:38;4.03;;;3.07;;
2638;SDS011;1329;51.384;7.122;2022-12-20T15:21:09;4.17;;;3.20;;
2638;SDS011;1329;51.384;7.122;2022-12-20T15:23:42;3.80;;;3.40;;
2638;SDS011;1329;51.384;7.122;2022-12-20T15:26:13;4.37;;;3.37;;
2638;SDS011;1329;51.384;7.122;2022-12-20T15:28:41;4.40;;;3.43;;
2638;SDS011;1329;51.384;7.122;2022-12-20T15:31:11;4.10;;;3.30;;
2638;SDS011;1329;51.384;7.122;2022-12-20T15:33:42;3.93;;;3.50;;
2638;SDS011;1329;51.384;7.122;2022-12-20T15:36:12;3.93;;;3.53;;
2638;SDS011;1329;51.384;7.122;2022-12-20T15:38:43;4.17;;;3.30;;
2638;SDS011;1329;51.384;7.122;2022-12-20T15:41:18;3.67;;;3.30;;
2638;SDS011;1329;51.384;7.122;2022-12-20T15:43:50;3.40;;;3.10;;
2638;SDS011;1329;51.384;7.122;2022-12-20T15:46:22;4.97;;;3.80;;
2638;SDS011;1329;51.384;7.122;2022-12-20T15:48:52;3.70;;;3.40;;
2638;SDS011;1329;51.384;7.122;2022-12-20T15:51:22;3.77;;;3.37;;
2638;SDS011;1329;51.384;7.122;2022-12-20T15:53:53;3.30;;;3.00;;
2638;SDS011;1329;51.384;7.122;2022-12-20T15:56:21;3.60;;;3.30;;
2638;SDS011;1329;51.384;7.122;2022-12-20T15:58:52;4.47;;;3.17;;
2638;SDS011;1329;51.384;7.122;2022-12-20T16:01:20;3.60;;;3.30;;
2638;SDS011;1329;51.384;7.122;2022-12-20T16:03:53;5.17;;;3.60;;
2638;SDS011;1329;51.384;7.122;2022-12-20T16:06:23;4.97;;;3.50;;
2638;SDS011;1329;51.384;7.122;2022-12-20T16:08:50;3.60;;;3.30;;
2638;SDS011;1329;51.384;7.122;2022-12-20T16:11:21;4.10;;;3.27;;